Corinth, Vermont
Current Conditions -  °F | °C
As of 6:51 PM on Monday 22 Dec 2014 (Local Time) from KMPV Reporting Station
Haze Haze  
Wind Chill: 31°   Ceiling: 3700
Heat Index: 31°   Visibility: 5mi
Dew Point: 29°   Wind: 3mph
Humidity: 92%   Direction: 190°S
Pressure: 30.32"   Gusts: NA
Location:  44.02°N, 72.3°W
Report Text: KMPV 222351Z AUTO 19003KT 5SM BR SCT019 OVC037 M01/M02 A3032 RMK AO2 SNE2257B24E49 SLP285 P0000 60000 T10061017 10000 21017 50001
Loading
Personal Weather Stations






























Interactive Weather Map New forecast layout! Learn more

10-Day Weather Forecast

Advertisements
Track Severe Weather on mobile